Norwalk, Iowa
Current Conditions -  °F | °C
As of 9:54 AM on Tuesday 21 Oct 2014 (Local Time) from KDSM Reporting Station
Clear Clear  
Wind Chill: 53°   Ceiling: Unl
Heat Index: 53°   Visibility: 10mi
Dew Point: 43°   Wind: 5mph
Humidity: 69%   Direction: 90°E
Pressure: 30.16"   Gusts: NA
Location:  41.48°N, 93.68°W
Report Text: KDSM 211454Z 09004KT 10SM CLR 12/06 A3016 RMK AO2 SLP214 T01170061 51013
Loading
Personal Weather Stations






























Interactive Weather Map
Tropical Storm Tracking
New forecast layout! Learn more

10-Day Weather Forecast

Advertisements
Track Severe Weather on mobile